createdAt,value
2018-05-23T00:01:37.071Z,98297
2018-05-23T00:04:04.540Z,98293
2018-05-23T00:06:31.971Z,98290
2018-05-23T00:08:59.540Z,98284
2018-05-23T00:11:28.781Z,98283
2018-05-23T00:13:58.249Z,98289
2018-05-23T00:16:29.421Z,98290
2018-05-23T00:18:59.891Z,98295
2018-05-23T00:21:30.440Z,98295
2018-05-23T00:23:58.191Z,98298
2018-05-23T00:26:26.290Z,98296
2018-05-23T00:28:55.121Z,98291
2018-05-23T00:31:23.560Z,98293
2018-05-23T00:33:53.799Z,98298
2018-05-23T00:36:21.139Z,98299
2018-05-23T00:38:49.489Z,98300
2018-05-23T00:41:16.633Z,98298
2018-05-23T00:43:44.320Z,98302
2018-05-23T00:46:12.349Z,98302
2018-05-23T00:48:39.801Z,98303
2018-05-23T00:51:08.901Z,98293
2018-05-23T00:53:36.391Z,98296
2018-05-23T00:56:03.751Z,98299
2018-05-23T00:58:31.091Z,98288
2018-05-23T01:00:58.361Z,98295
2018-05-23T01:03:26.491Z,98291
2018-05-23T01:05:56.730Z,98286
2018-05-23T01:08:24.791Z,98295
2018-05-23T01:10:53.174Z,98298
2018-05-23T01:13:20.799Z,98302
2018-05-23T01:15:48.309Z,98299
2018-05-23T01:18:15.387Z,98301
2018-05-23T01:20:43.790Z,98301
2018-05-23T01:23:11.241Z,98303
2018-05-23T01:25:38.480Z,98301
2018-05-23T01:28:05.970Z,98309
2018-05-23T01:30:33.312Z,98307
2018-05-23T01:33:00.909Z,98304
2018-05-23T01:35:29.660Z,98306
2018-05-23T01:37:57.081Z,98304
2018-05-23T01:40:24.640Z,98313
2018-05-23T01:42:53.399Z,98317
2018-05-23T01:45:20.839Z,98317
2018-05-23T01:47:48.224Z,98315
2018-05-23T01:50:16.350Z,98320
2018-05-23T01:52:43.929Z,98313
2018-05-23T01:55:11.250Z,98313
2018-05-23T01:57:40.381Z,98319
2018-05-23T02:00:07.436Z,98318
2018-05-23T02:02:34.670Z,98321
2018-05-23T02:05:02.110Z,98327
2018-05-23T02:07:29.430Z,98325
2018-05-23T02:09:56.850Z,98332
2018-05-23T02:12:24.162Z,98317
2018-05-23T02:14:51.850Z,98329
2018-05-23T02:17:19.390Z,98327
2018-05-23T02:19:47.350Z,98331
2018-05-23T02:22:14.990Z,98335
2018-05-23T02:24:42.501Z,98339
2018-05-23T02:27:10.203Z,98341
2018-05-23T02:29:38.143Z,98340
2018-05-23T02:32:05.601Z,98338
2018-05-23T02:34:33.210Z,98344
2018-05-23T02:37:00.680Z,98345
2018-05-23T02:39:28.130Z,98346
2018-05-23T02:41:55.723Z,98346
2018-05-23T02:44:23.180Z,98349
2018-05-23T02:46:51.111Z,98351
2018-05-23T02:49:18.551Z,98355
2018-05-23T02:51:46.040Z,98359
2018-05-23T02:54:13.549Z,98357
2018-05-23T02:56:42.279Z,98364
2018-05-23T02:59:09.561Z,98356
2018-05-23T03:01:37.170Z,98356
2018-05-23T03:04:04.622Z,98357
2018-05-23T03:06:32.161Z,98363
2018-05-23T03:08:59.568Z,98362
2018-05-23T03:11:27.049Z,98365
2018-05-23T03:13:54.440Z,98364
2018-05-23T03:16:22.690Z,98363
2018-05-23T03:18:50.370Z,98371
2018-05-23T03:21:17.620Z,98371
2018-05-23T03:23:44.980Z,98369
2018-05-23T03:26:14.169Z,98373
2018-05-23T03:28:43.250Z,98382
2018-05-23T03:31:10.663Z,98380
2018-05-23T03:33:38.940Z,98384
2018-05-23T03:36:06.330Z,98392
2018-05-23T03:38:33.560Z,98397
2018-05-23T03:41:01.580Z,98402
2018-05-23T03:43:29.010Z,98407
2018-05-23T03:45:57.432Z,98415
2018-05-23T03:48:25.901Z,98416
2018-05-23T03:50:56.971Z,98415
2018-05-23T03:53:26.302Z,98415
2018-05-23T03:55:53.690Z,98413
2018-05-23T03:58:21.210Z,98411
2018-05-23T04:01:06.891Z,98417
2018-05-23T04:03:52.250Z,98416
2018-05-23T04:09:28.140Z,98421
2018-05-23T04:11:55.763Z,98426
2018-05-23T04:14:23.235Z,98431
2018-05-23T04:16:50.709Z,98439
2018-05-23T04:19:18.230Z,98428
2018-05-23T04:21:46.450Z,98434
2018-05-23T04:24:13.971Z,98437
2018-05-23T04:26:41.290Z,98435
2018-05-23T04:29:09.703Z,98433
2018-05-23T04:31:37.011Z,98432
2018-05-23T04:34:04.369Z,98438
2018-05-23T04:36:31.880Z,98441
2018-05-23T04:39:00.411Z,98450
2018-05-23T04:41:29.719Z,98442
2018-05-23T04:43:58.850Z,98453
2018-05-23T04:46:27.970Z,98453
2018-05-23T04:48:55.502Z,98465
2018-05-23T04:51:23.071Z,98471
2018-05-23T04:53:51.131Z,98469
2018-05-23T04:56:18.361Z,98467
2018-05-23T04:58:45.682Z,98468
2018-05-23T05:01:13.201Z,98469
2018-05-23T05:03:42.136Z,98480
2018-05-23T05:06:09.472Z,98484
2018-05-23T05:08:36.820Z,98478
2018-05-23T05:11:04.971Z,98483
2018-05-23T05:13:33.620Z,98492
2018-05-23T05:16:00.970Z,98497
2018-05-23T05:18:29.054Z,98496
2018-05-23T05:20:57.230Z,98500
2018-05-23T05:23:25.761Z,98509
2018-05-23T05:25:53.342Z,98508
2018-05-23T05:28:20.682Z,98507
2018-05-23T05:30:50.031Z,98514
2018-05-23T05:33:17.511Z,98520
2018-05-23T05:35:45.106Z,98521
2018-05-23T05:38:12.485Z,98524
2018-05-23T05:40:39.940Z,98528
2018-05-23T05:43:07.291Z,98539
2018-05-23T05:45:35.309Z,98541
2018-05-23T05:48:02.730Z,98548
2018-05-23T05:50:30.980Z,98547
2018-05-23T05:52:59.251Z,98548
2018-05-23T05:55:26.740Z,98558
2018-05-23T05:57:54.965Z,98567
2018-05-23T06:00:22.474Z,98574
2018-05-23T06:02:53.660Z,98569
2018-05-23T06:05:21.015Z,98572
2018-05-23T06:07:48.540Z,98575
2018-05-23T06:10:16.000Z,98570
2018-05-23T06:12:43.360Z,98574
2018-05-23T06:15:10.671Z,98571
2018-05-23T06:17:38.781Z,98569
2018-05-23T06:20:07.151Z,98570
2018-05-23T06:22:36.612Z,98571
2018-05-23T06:25:05.014Z,98576
2018-05-23T06:27:33.256Z,98568
2018-05-23T06:30:02.268Z,98567
2018-05-23T06:32:31.980Z,98577
2018-05-23T06:34:59.541Z,98576
2018-05-23T06:37:26.821Z,98583
2018-05-23T06:39:55.980Z,98584
2018-05-23T06:42:23.340Z,98588
2018-05-23T06:44:51.451Z,98589
2018-05-23T06:47:18.791Z,98587
2018-05-23T06:49:47.452Z,98589
2018-05-23T06:52:14.721Z,98586
2018-05-23T06:54:42.930Z,98590
2018-05-23T06:57:10.075Z,98590
2018-05-23T06:59:38.935Z,98586
2018-05-23T07:02:09.812Z,98598
2018-05-23T07:04:37.142Z,98588
2018-05-23T07:07:05.472Z,98586
2018-05-23T07:09:34.181Z,98588
2018-05-23T07:12:01.822Z,98588
2018-05-23T07:14:30.171Z,98582
2018-05-23T07:16:57.671Z,98578
2018-05-23T07:19:25.111Z,98586
2018-05-23T07:21:53.042Z,98589
2018-05-23T07:24:20.391Z,98591
2018-05-23T07:26:48.841Z,98585
2018-05-23T07:29:16.340Z,98595
2018-05-23T07:31:43.889Z,98590
2018-05-23T07:34:12.022Z,98585
2018-05-23T07:36:41.218Z,98580
2018-05-23T07:39:09.371Z,98579
2018-05-23T07:41:36.640Z,98579
2018-05-23T07:44:04.181Z,98585
2018-05-23T07:46:31.840Z,98599
2018-05-23T07:49:00.460Z,98600
2018-05-23T07:51:28.544Z,98604
2018-05-23T07:53:55.871Z,98588
2018-05-23T07:56:23.595Z,98583
2018-05-23T07:58:51.162Z,98581
2018-05-23T08:01:18.400Z,98575
2018-05-23T08:03:45.781Z,98583
2018-05-23T08:06:13.222Z,98589
2018-05-23T08:08:40.734Z,98585
2018-05-23T08:11:09.050Z,98580
2018-05-23T08:13:36.370Z,98592
2018-05-23T08:16:03.691Z,98590
2018-05-23T08:18:31.231Z,98592
2018-05-23T08:21:02.501Z,98591
2018-05-23T08:23:30.560Z,98591
2018-05-23T08:25:58.033Z,98591
2018-05-23T08:28:26.650Z,98597
2018-05-23T08:30:55.270Z,98588
2018-05-23T08:33:26.730Z,98588
2018-05-23T08:35:57.600Z,98589
2018-05-23T08:38:24.920Z,98599
2018-05-23T08:40:52.340Z,98594
2018-05-23T08:43:20.771Z,98595
2018-05-23T08:45:48.500Z,98596
2018-05-23T08:48:15.862Z,98593
2018-05-23T08:50:43.516Z,98594
2018-05-23T08:53:11.102Z,98598
2018-05-23T08:55:38.462Z,98593
2018-05-23T08:58:06.131Z,98595
2018-05-23T09:00:34.362Z,98596
2018-05-23T09:03:01.910Z,98600
2018-05-23T09:05:30.322Z,98605
2018-05-23T09:07:57.985Z,98595
2018-05-23T09:10:25.493Z,98610
2018-05-23T09:12:55.332Z,98609
2018-05-23T09:15:22.961Z,98611
2018-05-23T09:17:50.670Z,98614
2018-05-23T09:20:18.351Z,98613
2018-05-23T09:22:45.681Z,98604
2018-05-23T09:25:14.140Z,98607
2018-05-23T09:27:41.581Z,98604
2018-05-23T09:30:08.901Z,98601
2018-05-23T09:32:36.241Z,98593
2018-05-23T09:35:03.861Z,98600
2018-05-23T09:37:31.240Z,98593
2018-05-23T09:40:00.346Z,98594
2018-05-23T09:42:27.893Z,98589
2018-05-23T09:44:55.980Z,98600
2018-05-23T09:47:23.621Z,98597
2018-05-23T09:49:51.370Z,98590
2018-05-23T09:52:18.680Z,98590
2018-05-23T09:54:48.901Z,98586
2018-05-23T09:57:16.551Z,98588
2018-05-23T09:59:43.971Z,98583
2018-05-23T10:02:11.361Z,98589
2018-05-23T10:04:40.989Z,98583
2018-05-23T10:07:08.715Z,98592
2018-05-23T10:09:36.311Z,98583
2018-05-23T10:12:04.290Z,98584
2018-05-23T10:14:31.850Z,98585
2018-05-23T10:16:59.631Z,98576
2018-05-23T10:19:27.462Z,98572
2018-05-23T10:21:54.931Z,98579
2018-05-23T10:24:23.162Z,98572
2018-05-23T10:26:51.381Z,98568
2018-05-23T10:29:19.700Z,98567
2018-05-23T10:31:47.191Z,98571
2018-05-23T10:34:14.781Z,98568
2018-05-23T10:36:42.432Z,98565
2018-05-23T10:39:10.021Z,98567
2018-05-23T10:41:38.070Z,98573
2018-05-23T10:44:05.562Z,98566
2018-05-23T10:46:33.741Z,98562
2018-05-23T10:49:01.374Z,98569
2018-05-23T10:51:29.190Z,98558
2018-05-23T10:53:57.541Z,98559
2018-05-23T10:56:25.863Z,98565
2018-05-23T10:58:53.471Z,98562
2018-05-23T11:01:21.741Z,98560
2018-05-23T11:03:49.777Z,98564
2018-05-23T11:06:17.331Z,98564
2018-05-23T11:08:44.812Z,98561
2018-05-23T11:11:13.190Z,98562
2018-05-23T11:13:40.942Z,98553
2018-05-23T11:16:08.493Z,98560
2018-05-23T11:18:35.851Z,98557
2018-05-23T11:21:03.522Z,98549
2018-05-23T11:23:31.134Z,98558
2018-05-23T11:25:59.130Z,98553
2018-05-23T11:28:27.741Z,98554
2018-05-23T11:30:58.190Z,98543
2018-05-23T11:33:25.523Z,98545
2018-05-23T11:35:55.620Z,98555
2018-05-23T11:38:23.132Z,98544
2018-05-23T11:40:51.132Z,98534
2018-05-23T11:43:18.501Z,98536
2018-05-23T11:45:46.250Z,98529
2018-05-23T11:48:13.563Z,98530
2018-05-23T11:50:42.141Z,98527
2018-05-23T11:53:09.514Z,98529
2018-05-23T11:55:38.790Z,98530
2018-05-23T11:58:06.169Z,98526
2018-05-23T12:00:37.555Z,98531
2018-05-23T12:03:04.985Z,98527
2018-05-23T12:05:32.890Z,98523
2018-05-23T12:08:00.465Z,98529
2018-05-23T12:10:28.780Z,98522
2018-05-23T12:12:57.550Z,98522
2018-05-23T12:15:26.801Z,98519
2018-05-23T12:17:54.090Z,98518
2018-05-23T12:20:21.491Z,98507
2018-05-23T12:22:49.291Z,98507
2018-05-23T12:25:16.672Z,98507
2018-05-23T12:27:44.210Z,98504
2018-05-23T12:30:11.721Z,98506
2018-05-23T12:32:39.720Z,98498
2018-05-23T12:35:08.242Z,98495
2018-05-23T12:37:35.621Z,98496
2018-05-23T12:40:04.637Z,98497
2018-05-23T12:42:32.641Z,98499
2018-05-23T12:45:00.145Z,98494
2018-05-23T12:47:28.241Z,98487
2018-05-23T12:49:55.650Z,98485
2018-05-23T12:52:23.456Z,98477
2018-05-23T12:54:50.951Z,98484
2018-05-23T12:57:18.432Z,98486
2018-05-23T12:59:46.630Z,98481
2018-05-23T13:02:13.981Z,98473
2018-05-23T13:04:41.712Z,98479
2018-05-23T13:07:09.651Z,98475
2018-05-23T13:09:37.581Z,98472
2018-05-23T13:12:05.841Z,98473
2018-05-23T13:14:35.982Z,98475
2018-05-23T13:17:03.372Z,98470
2018-05-23T13:19:31.712Z,98469
2018-05-23T13:21:59.111Z,98469
2018-05-23T13:24:26.661Z,98467
2018-05-23T13:26:56.512Z,98467
2018-05-23T13:29:24.171Z,98461
2018-05-23T13:31:52.491Z,98466
2018-05-23T13:34:19.852Z,98465
2018-05-23T13:36:47.223Z,98465
2018-05-23T13:39:14.981Z,98448
2018-05-23T13:41:42.490Z,98462
2018-05-23T13:44:10.882Z,98458
2018-05-23T13:46:38.540Z,98448
2018-05-23T13:49:06.330Z,98447
2018-05-23T13:51:33.771Z,98438
2018-05-23T13:54:02.070Z,98432
2018-05-23T13:56:29.548Z,98425
2018-05-23T13:58:57.040Z,98415
2018-05-23T14:01:24.178Z,98423
2018-05-23T14:03:51.888Z,98415
2018-05-23T14:08:47.601Z,98420
2018-05-23T14:11:14.606Z,98407
2018-05-23T14:13:41.687Z,98407
2018-05-23T14:16:09.972Z,98408
2018-05-23T14:18:38.250Z,98409
2018-05-23T14:21:05.731Z,98410
2018-05-23T14:23:33.251Z,98409
2018-05-23T14:26:01.443Z,98400
2018-05-23T14:28:31.320Z,98400
2018-05-23T14:30:58.915Z,98402
2018-05-23T14:33:26.824Z,98409
2018-05-23T14:35:54.379Z,98396
2018-05-23T14:38:23.602Z,98401
2018-05-23T14:40:51.724Z,98402
2018-05-23T14:46:00.861Z,98408
2018-05-23T14:48:28.907Z,98408
2018-05-23T14:50:57.130Z,98407
2018-05-23T14:53:26.543Z,98401
2018-05-23T14:55:54.092Z,98406
2018-05-23T14:58:21.597Z,98407
2018-05-23T15:00:49.641Z,98406
2018-05-23T15:03:18.571Z,98402
2018-05-23T15:05:48.001Z,98406
2018-05-23T15:08:15.561Z,98415
2018-05-23T15:10:42.983Z,98416
2018-05-23T15:13:11.951Z,98424
2018-05-23T15:15:39.463Z,98434
2018-05-23T15:18:09.602Z,98427
2018-05-23T15:20:37.481Z,98439
2018-05-23T15:23:07.321Z,98428
2018-05-23T15:25:34.761Z,98437
2018-05-23T15:28:03.471Z,98434
2018-05-23T15:30:32.691Z,98426
2018-05-23T15:33:00.293Z,98425
2018-05-23T15:35:28.171Z,98434
2018-05-23T15:37:55.760Z,98427
2018-05-23T15:40:23.631Z,98431
2018-05-23T15:42:52.031Z,98426
2018-05-23T15:45:19.461Z,98412
2018-05-23T15:47:47.709Z,98419
2018-05-23T15:50:15.280Z,98415
2018-05-23T15:52:42.722Z,98418
2018-05-23T15:55:10.600Z,98417
2018-05-23T15:57:38.070Z,98412
2018-05-23T16:00:06.674Z,98415
2018-05-23T16:02:34.339Z,98416
2018-05-23T16:05:02.170Z,98418
2018-05-23T16:07:29.750Z,98416
2018-05-23T16:09:58.310Z,98416
2018-05-23T16:12:26.262Z,98425
2018-05-23T16:14:54.378Z,98427
2018-05-23T16:17:21.709Z,98428
2018-05-23T16:19:49.531Z,98433
2018-05-23T16:22:17.082Z,98433
2018-05-23T16:24:45.417Z,98440
2018-05-23T16:27:12.981Z,98440
2018-05-23T16:29:41.290Z,98442
2018-05-23T16:32:09.081Z,98446
2018-05-23T16:34:36.611Z,98442
2018-05-23T16:37:04.642Z,98455
2018-05-23T16:39:33.161Z,98465
2018-05-23T16:42:00.651Z,98459
2018-05-23T16:44:29.086Z,98461
2018-05-23T16:46:57.212Z,98460
2018-05-23T16:49:24.912Z,98469
2018-05-23T16:51:52.390Z,98467
2018-05-23T16:54:20.611Z,98469
2018-05-23T16:56:48.150Z,98463
2018-05-23T16:59:15.751Z,98472
2018-05-23T17:01:44.501Z,98468
2018-05-23T17:04:12.261Z,98469
2018-05-23T17:06:39.974Z,98469
2018-05-23T17:09:07.540Z,98465
2018-05-23T17:11:36.661Z,98467
2018-05-23T17:14:04.191Z,98466
2018-05-23T17:16:32.590Z,98462
2018-05-23T17:19:00.533Z,98458
2018-05-23T17:21:27.950Z,98464
2018-05-23T17:23:55.591Z,98472
2018-05-23T17:26:23.131Z,98482
2018-05-23T17:28:50.511Z,98483
2018-05-23T17:31:18.950Z,98484
2018-05-23T17:33:46.293Z,98481
2018-05-23T17:36:15.591Z,98486
2018-05-23T17:38:43.940Z,98486
2018-05-23T17:41:11.352Z,98491
2018-05-23T17:43:39.801Z,98488
2018-05-23T17:46:08.240Z,98492
2018-05-23T17:48:35.749Z,98493
2018-05-23T17:51:03.070Z,98493
2018-05-23T17:53:30.801Z,98502
2018-05-23T17:55:58.261Z,98503
2018-05-23T17:58:26.490Z,98508
2018-05-23T18:00:54.821Z,98507
2018-05-23T18:03:22.330Z,98507
2018-05-23T18:05:50.554Z,98499
2018-05-23T18:08:18.230Z,98501
2018-05-23T18:10:45.670Z,98507
2018-05-23T18:13:13.310Z,98501
2018-05-23T18:15:40.821Z,98503
2018-05-23T18:18:08.310Z,98503
2018-05-23T18:20:36.816Z,98507
2018-05-23T18:23:04.661Z,98515
2018-05-23T18:25:32.230Z,98515
2018-05-23T18:28:00.651Z,98509
2018-05-23T18:30:28.360Z,98525
2018-05-23T18:32:56.140Z,98517
2018-05-23T18:35:23.522Z,98520
2018-05-23T18:37:51.051Z,98523
2018-05-23T18:40:18.641Z,98528
2018-05-23T18:42:46.213Z,98527
2018-05-23T18:45:13.771Z,98536
2018-05-23T18:47:41.380Z,98528
2018-05-23T18:50:08.950Z,98531
2018-05-23T18:52:36.402Z,98546
2018-05-23T18:55:04.295Z,98543
2018-05-23T18:57:32.151Z,98551
2018-05-23T18:59:59.562Z,98563
2018-05-23T19:02:27.730Z,98556
2018-05-23T19:04:55.471Z,98558
2018-05-23T19:07:23.810Z,98563
2018-05-23T19:09:51.292Z,98558
2018-05-23T19:12:18.894Z,98558
2018-05-23T19:14:46.520Z,98564
2018-05-23T19:17:15.323Z,98556
2018-05-23T19:19:42.852Z,98559
2018-05-23T19:22:10.351Z,98559
2018-05-23T19:24:39.750Z,98556
2018-05-23T19:27:07.190Z,98568
2018-05-23T19:29:34.502Z,98560
2018-05-23T19:32:02.499Z,98574
2018-05-23T19:34:30.080Z,98578
2018-05-23T19:36:57.385Z,98571
2018-05-23T19:39:25.141Z,98579
2018-05-23T19:41:52.951Z,98578
2018-05-23T19:44:21.270Z,98582
2018-05-23T19:46:49.510Z,98591
2018-05-23T19:49:17.088Z,98585
2018-05-23T19:51:44.653Z,98589
2018-05-23T19:54:12.070Z,98597
2018-05-23T19:56:39.544Z,98598
2018-05-23T19:59:06.830Z,98602
2018-05-23T20:01:36.333Z,98606
2018-05-23T20:04:05.191Z,98603
2018-05-23T20:06:32.561Z,98604
2018-05-23T20:09:02.215Z,98609
2018-05-23T20:11:29.571Z,98616
2018-05-23T20:13:57.202Z,98609
2018-05-23T20:16:25.410Z,98612
2018-05-23T20:18:52.960Z,98603
2018-05-23T20:21:20.331Z,98602
2018-05-23T20:23:48.350Z,98601
2018-05-23T20:26:15.751Z,98595
2018-05-23T20:28:43.220Z,98590
2018-05-23T20:31:10.760Z,98585
2018-05-23T20:33:38.052Z,98583
2018-05-23T20:36:06.443Z,98580
2018-05-23T20:38:34.213Z,98579
2018-05-23T20:41:03.400Z,98578
2018-05-23T20:43:31.236Z,98574
2018-05-23T20:46:01.830Z,98574
2018-05-23T20:48:31.250Z,98580
2018-05-23T20:50:59.431Z,98579
2018-05-23T20:53:27.940Z,98579
2018-05-23T20:55:56.532Z,98584
2018-05-23T20:58:24.108Z,98581
2018-05-23T21:00:51.454Z,98588
2018-05-23T21:03:19.630Z,98582
2018-05-23T21:05:47.639Z,98587
2018-05-23T21:08:15.211Z,98583
2018-05-23T21:10:42.992Z,98591
2018-05-23T21:13:10.471Z,98588
2018-05-23T21:15:37.882Z,98588
2018-05-23T21:18:05.952Z,98591
2018-05-23T21:20:33.512Z,98590
2018-05-23T21:23:01.183Z,98599
2018-05-23T21:25:28.670Z,98594
2018-05-23T21:27:56.564Z,98588
2018-05-23T21:30:25.392Z,98593
2018-05-23T21:32:52.843Z,98599
2018-05-23T21:35:20.527Z,98603
2018-05-23T21:37:48.649Z,98589
2018-05-23T21:40:15.951Z,98590
2018-05-23T21:42:43.390Z,98590
2018-05-23T21:45:11.470Z,98594
2018-05-23T21:47:39.030Z,98588
2018-05-23T21:50:07.170Z,98595
2018-05-23T21:52:34.510Z,98591
2018-05-23T21:55:02.563Z,98602
2018-05-23T21:57:29.930Z,98592
2018-05-23T22:00:00.983Z,98594
2018-05-23T22:02:28.263Z,98595
2018-05-23T22:05:00.080Z,98605
2018-05-23T22:07:28.312Z,98598
2018-05-23T22:09:55.631Z,98604
2018-05-23T22:12:23.709Z,98603
2018-05-23T22:14:52.273Z,98600
2018-05-23T22:17:19.602Z,98596
2018-05-23T22:19:47.230Z,98592
2018-05-23T22:22:14.782Z,98600
2018-05-23T22:24:43.391Z,98594
2018-05-23T22:27:13.633Z,98589
2018-05-23T22:29:41.760Z,98590
2018-05-23T22:32:11.910Z,98588
2018-05-23T22:34:41.102Z,98582
2018-05-23T22:37:09.164Z,98585
2018-05-23T22:39:36.530Z,98584
2018-05-23T22:42:03.971Z,98578
2018-05-23T22:44:31.302Z,98582
2018-05-23T22:46:58.670Z,98580
2018-05-23T22:49:26.191Z,98579
2018-05-23T22:51:54.442Z,98580
2018-05-23T22:54:22.020Z,98579
2018-05-23T22:56:50.205Z,98577
2018-05-23T22:59:17.483Z,98568
2018-05-23T23:01:46.582Z,98585
2018-05-23T23:04:14.551Z,98573
2018-05-23T23:06:43.271Z,98579
2018-05-23T23:09:11.484Z,98579
2018-05-23T23:11:39.070Z,98579
2018-05-23T23:14:06.373Z,98572
2018-05-23T23:16:34.110Z,98568
2018-05-23T23:19:04.822Z,98572
2018-05-23T23:21:33.210Z,98576
2018-05-23T23:24:02.020Z,98572
2018-05-23T23:26:30.892Z,98561
2018-05-23T23:28:58.340Z,98569
2018-05-23T23:31:26.671Z,98563
2018-05-23T23:33:54.870Z,98557
2018-05-23T23:36:22.243Z,98558
2018-05-23T23:38:49.642Z,98562
2018-05-23T23:41:17.591Z,98566
2018-05-23T23:43:45.261Z,98574
2018-05-23T23:46:14.410Z,98576
2018-05-23T23:48:41.873Z,98579
2018-05-23T23:51:10.880Z,98580
2018-05-23T23:53:38.072Z,98578
2018-05-23T23:56:05.483Z,98581
2018-05-23T23:58:32.831Z,98577
